Time;durP1;ratioP1;P1;durP2;ratioP2;P2;SDS_P1;SDS_P2;PMS_P1;PMS_P2;Temp;Humidity;BMP_temperature;BMP_pressure;BME280_temperature;BME280_humidity;BME280_pressure;Samples;Min_cycle;Max_cycle;Signal;HPM_P1;HPM_P2
2024/01/15 00:00:48;;;;;;;2.92;2.40;;;-2.10;99.90;;;;;;5078960;28;20032;-74
2024/01/15 00:03:14;;;;;;;1.75;1.65;;;-2.10;99.90;;;;;;5075492;28;20473;-74
2024/01/15 00:05:40;;;;;;;1.42;1.33;;;-2.10;99.90;;;;;;5077387;28;20504;-74
2024/01/15 00:08:09;;;;;;;1.15;1.05;;;-2.10;99.90;;;;;;5078587;28;20920;-75
2024/01/15 00:10:35;;;;;;;1.20;1.08;;;-2.00;99.90;;;;;;5080561;28;20044;-74
2024/01/15 00:13:02;;;;;;;2.53;2.38;;;-2.00;99.90;;;;;;5079756;28;20032;-74
2024/01/15 00:15:28;;;;;;;3.78;0.80;;;-2.00;99.90;;;;;;5080712;28;20040;-75
2024/01/15 00:17:54;;;;;;;2.55;2.35;;;-2.00;99.90;;;;;;5082966;28;20035;-74
2024/01/15 00:20:20;;;;;;;2.05;1.65;;;-2.10;99.90;;;;;;5081206;28;20043;-74
2024/01/15 00:22:47;;;;;;;2.40;2.20;;;-2.10;99.90;;;;;;5083751;28;20384;-75
2024/01/15 00:25:13;;;;;;;0.43;0.43;;;-2.00;99.90;;;;;;5080912;28;20040;-74
2024/01/15 00:27:39;;;;;;;3.40;2.25;;;-2.00;99.90;;;;;;5081150;28;20033;-74
2024/01/15 00:30:06;;;;;;;0.90;0.88;;;-2.00;99.90;;;;;;5081495;28;20040;-73
2024/01/15 00:32:32;;;;;;;2.60;2.40;;;-2.00;99.90;;;;;;5081043;28;20036;-75
2024/01/15 00:34:58;;;;;;;2.13;1.17;;;-2.00;99.90;;;;;;5080888;28;20025;-76
2024/01/15 00:37:24;;;;;;;7.50;2.97;;;-2.00;99.90;;;;;;5080786;28;20036;-74
2024/01/15 00:39:50;;;;;;;1.75;1.38;;;-2.00;99.90;;;;;;5083316;28;20047;-75
2024/01/15 00:42:16;;;;;;;2.22;1.50;;;-1.90;99.90;;;;;;5086658;28;20033;-76
2024/01/15 00:44:43;;;;;;;0.85;0.85;;;-2.00;99.90;;;;;;5082716;28;20381;-75
2024/01/15 00:47:09;;;;;;;1.65;1.58;;;-2.00;99.90;;;;;;5082815;28;20044;-76
2024/01/15 00:49:35;;;;;;;0.57;0.57;;;-2.00;99.90;;;;;;5065646;28;20043;-75
2024/01/15 00:52:01;;;;;;;8.52;2.22;;;-2.00;99.90;;;;;;5065737;28;20024;-75
2024/01/15 00:54:28;;;;;;;6.07;1.80;;;-2.00;99.90;;;;;;5081341;28;20024;-76
2024/01/15 00:56:54;;;;;;;1.38;0.52;;;-1.90;99.90;;;;;;5084011;28;20385;-76
2024/01/15 00:59:21;;;;;;;0.45;0.35;;;-1.90;99.90;;;;;;5082730;28;20342;-75
2024/01/15 01:01:47;;;;;;;3.92;1.20;;;-1.90;99.90;;;;;;5081209;28;20516;-77
2024/01/15 01:04:13;;;;;;;1.48;1.35;;;-1.90;99.90;;;;;;5093169;28;20044;-75
2024/01/15 01:06:42;;;;;;;0.80;0.80;;;-1.90;99.90;;;;;;5084384;28;20059;-76
2024/01/15 01:09:08;;;;;;;2.40;1.65;;;-1.90;99.90;;;;;;5080095;28;20028;-75
2024/01/15 01:11:34;;;;;;;1.30;1.17;;;-1.90;99.90;;;;;;5080659;28;20378;-76
2024/01/15 01:14:01;;;;;;;1.33;0.75;;;-1.80;99.90;;;;;;5081396;28;20028;-76
2024/01/15 01:16:27;;;;;;;1.70;1.58;;;-1.80;99.90;;;;;;5082556;28;20020;-76
2024/01/15 01:18:54;;;;;;;3.88;2.03;;;-1.80;99.90;;;;;;5079728;28;20031;-76
2024/01/15 01:21:20;;;;;;;1.70;1.58;;;-1.80;99.90;;;;;;5055428;28;20045;-76
2024/01/15 01:23:46;;;;;;;3.55;1.48;;;-1.80;99.90;;;;;;5081301;28;20028;-76
2024/01/15 01:26:16;;;;;;;2.33;2.15;;;-1.80;99.90;;;;;;5084474;28;20036;-76
2024/01/15 01:28:42;;;;;;;0.05;0.05;;;-1.80;99.90;;;;;;5062953;28;20043;-76
2024/01/15 01:31:08;;;;;;;7.85;1.98;;;-1.80;99.90;;;;;;5061710;28;20044;-76
2024/01/15 01:33:34;;;;;;;1.58;1.13;;;-1.90;99.90;;;;;;5080836;28;20048;-76
2024/01/15 01:36:01;;;;;;;2.60;2.28;;;-1.90;99.90;;;;;;5079938;28;20045;-76
2024/01/15 01:38:27;;;;;;;2.38;1.88;;;-1.80;99.90;;;;;;5079175;28;20060;-75
2024/01/15 01:40:53;;;;;;;1.63;1.52;;;-1.80;99.90;;;;;;5079325;28;20036;-74
2024/01/15 01:43:19;;;;;;;7.68;2.92;;;-1.80;99.90;;;;;;5079156;28;20036;-76
2024/01/15 01:45:46;;;;;;;1.05;0.95;;;-1.80;99.90;;;;;;5075615;28;20548;-74
2024/01/15 01:48:13;;;;;;;2.05;0.75;;;-1.70;99.90;;;;;;5080078;28;20040;-76
2024/01/15 01:50:39;;;;;;;3.10;1.75;;;-1.70;99.90;;;;;;5076934;28;20149;-76
2024/01/15 01:53:06;;;;;;;1.15;1.13;;;-1.60;99.90;;;;;;5079968;28;20385;-74
2024/01/15 01:55:34;;;;;;;0.57;0.57;;;-1.60;99.90;;;;;;5079792;28;20482;-76
2024/01/15 01:58:01;;;;;;;3.70;2.38;;;-1.60;99.90;;;;;;5081747;28;20059;-76
2024/01/15 02:00:27;;;;;;;1.80;1.70;;;-1.60;99.90;;;;;;5079200;28;20025;-74
2024/01/15 02:02:53;;;;;;;1.95;0.95;;;-1.50;99.90;;;;;;5075297;28;20059;-73
2024/01/15 02:05:21;;;;;;;0.85;0.68;;;-1.50;99.90;;;;;;5073323;28;20028;-73
2024/01/15 02:07:48;;;;;;;6.70;3.60;;;-1.50;99.90;;;;;;5074882;28;20051;-74
2024/01/15 02:10:14;;;;;;;0.85;0.82;;;-1.50;99.90;;;;;;5079577;28;20040;-74
2024/01/15 02:12:42;;;;;;;0.73;0.73;;;-1.50;99.90;;;;;;5080095;28;20377;-74
2024/01/15 02:15:08;;;;;;;0.40;0.40;;;-1.50;99.90;;;;;;5068929;28;20469;-74
2024/01/15 02:17:34;;;;;;;1.23;1.17;;;-1.50;99.90;;;;;;5079262;28;20024;-75
2024/01/15 02:20:01;;;;;;;0.20;0.20;;;-1.50;99.90;;;;;;5081238;28;20032;-75
2024/01/15 02:22:27;;;;;;;2.05;1.90;;;-1.50;99.90;;;;;;5082993;28;20037;-75
2024/01/15 02:24:53;;;;;;;1.30;1.20;;;-1.50;99.90;;;;;;5079422;28;20367;-74
2024/01/15 02:27:20;;;;;;;14.25;2.33;;;-1.50;99.90;;;;;;5076760;28;20059;-74
2024/01/15 02:29:47;;;;;;;1.63;1.52;;;-1.50;99.90;;;;;;5081085;28;20037;-76
2024/01/15 02:32:13;;;;;;;1.38;0.82;;;-1.50;99.90;;;;;;5078290;28;20234;-76
2024/01/15 02:34:39;;;;;;;5.63;3.75;;;-1.50;99.90;;;;;;5078678;28;20032;-76
2024/01/15 02:37:05;;;;;;;0.80;0.80;;;-1.50;99.90;;;;;;5076705;28;20048;-76
2024/01/15 02:39:32;;;;;;;3.22;2.92;;;-1.50;99.90;;;;;;5081675;28;20043;-75
2024/01/15 02:41:58;;;;;;;1.58;1.48;;;-1.50;99.90;;;;;;5080944;28;20032;-75
2024/01/15 02:44:24;;;;;;;0.57;0.57;;;-1.50;99.90;;;;;;5079292;28;20036;-75
2024/01/15 02:46:50;;;;;;;2.60;1.45;;;-1.50;99.90;;;;;;5056151;28;20404;-75
2024/01/15 02:49:16;;;;;;;3.38;3.03;;;-1.50;99.90;;;;;;5077954;28;20373;-75
2024/01/15 02:51:43;;;;;;;1.60;1.52;;;-1.60;99.90;;;;;;5083847;28;20040;-75
2024/01/15 02:54:09;;;;;;;3.10;1.05;;;-1.60;99.90;;;;;;5083846;28;20024;-74
2024/01/15 02:56:35;;;;;;;5.35;3.95;;;-1.60;99.90;;;;;;5062208;28;20512;-75
2024/01/15 02:59:01;;;;;;;11.85;2.60;;;-1.60;99.90;;;;;;5078861;28;20043;-75
2024/01/15 03:01:27;;;;;;;3.97;3.10;;;-1.60;99.90;;;;;;5068911;28;20031;-75
2024/01/15 03:03:55;;;;;;;3.95;3.63;;;-1.70;99.90;;;;;;5078197;28;20392;-75
2024/01/15 03:06:21;;;;;;;1.45;1.35;;;-1.70;99.90;;;;;;5077307;28;20037;-75
2024/01/15 03:08:47;;;;;;;2.60;2.28;;;-1.60;99.90;;;;;;5076965;28;20761;-76
2024/01/15 03:11:13;;;;;;;3.72;1.48;;;-1.70;99.90;;;;;;5080210;28;20044;-75
2024/01/15 03:13:39;;;;;;;7.72;5.85;;;-1.70;99.90;;;;;;5079994;28;20028;-76
2024/01/15 03:16:06;;;;;;;11.88;7.50;;;-1.60;99.90;;;;;;5082090;28;20037;-73
2024/01/15 03:18:32;;;;;;;11.13;6.43;;;-1.60;99.90;;;;;;5085785;28;20025;-75
2024/01/15 03:21:01;;;;;;;17.83;6.35;;;-1.60;99.90;;;;;;5084083;28;20480;-76
2024/01/15 03:23:27;;;;;;;9.38;3.50;;;-1.60;99.90;;;;;;5081010;28;20260;-75
2024/01/15 03:25:53;;;;;;;1.00;0.90;;;-1.70;99.90;;;;;;5078510;28;20449;-76
2024/01/15 03:28:19;;;;;;;1.50;1.40;;;-1.60;99.90;;;;;;5077103;28;20028;-76
2024/01/15 03:30:45;;;;;;;1.02;1.00;;;-1.60;99.90;;;;;;5078511;28;20039;-75
2024/01/15 03:33:12;;;;;;;2.72;2.53;;;-1.70;99.90;;;;;;5081959;28;20040;-74
2024/01/15 03:35:38;;;;;;;2.83;2.47;;;-1.70;99.90;;;;;;5080502;28;20107;-75
2024/01/15 03:38:04;;;;;;;7.22;2.25;;;-1.70;99.90;;;;;;5066686;28;20067;-76
2024/01/15 03:40:30;;;;;;;1.70;1.60;;;-1.70;99.90;;;;;;5076820;28;20040;-75
2024/01/15 03:42:56;;;;;;;2.70;2.55;;;-1.70;99.90;;;;;;5071931;28;20036;-74
2024/01/15 03:45:22;;;;;;;2.40;1.58;;;-1.70;99.90;;;;;;5079826;28;20035;-75
2024/01/15 03:47:49;;;;;;;1.23;1.13;;;-1.70;99.90;;;;;;5087152;28;20032;-75
2024/01/15 03:50:15;;;;;;;1.05;1.05;;;-1.60;99.90;;;;;;5081394;28;20028;-74
2024/01/15 03:52:41;;;;;;;1.23;1.05;;;-1.60;99.90;;;;;;5086791;28;20028;-75
2024/01/15 03:55:07;;;;;;;1.77;0.93;;;-1.70;99.90;;;;;;5083920;28;20466;-75
2024/01/15 03:57:34;;;;;;;0.55;0.55;;;-1.70;99.90;;;;;;5087115;28;20040;-75
2024/01/15 04:00:00;;;;;;;1.65;1.58;;;-1.70;99.90;;;;;;5085089;28;20040;-75
2024/01/15 04:02:26;;;;;;;0.32;0.32;;;-1.70;99.90;;;;;;5088069;28;20036;-75
2024/01/15 04:04:52;;;;;;;2.88;2.65;;;-1.70;99.90;;;;;;5085936;28;20043;-75
2024/01/15 04:07:18;;;;;;;1.50;1.40;;;-1.70;99.90;;;;;;5087302;28;20059;-75
2024/01/15 04:09:44;;;;;;;1.80;1.58;;;-1.70;99.90;;;;;;5088089;28;20028;-76
2024/01/15 04:12:11;;;;;;;8.00;3.85;;;-1.70;99.90;;;;;;5084917;28;20035;-74
2024/01/15 04:14:37;;;;;;;6.78;2.63;;;-1.70;99.90;;;;;;5083823;28;20032;-75
2024/01/15 04:17:03;;;;;;;4.10;2.15;;;-1.70;99.90;;;;;;5085242;28;20047;-76
2024/01/15 04:19:29;;;;;;;3.55;1.63;;;-1.70;99.90;;;;;;5083337;28;20045;-75
2024/01/15 04:21:55;;;;;;;0.98;0.98;;;-1.60;99.90;;;;;;5082899;28;20028;-75
2024/01/15 04:24:21;;;;;;;2.00;1.83;;;-1.70;99.90;;;;;;5083228;28;20032;-74
2024/01/15 04:26:48;;;;;;;1.42;1.33;;;-1.60;99.90;;;;;;5070825;28;20043;-74
2024/01/15 04:29:14;;;;;;;2.08;1.67;;;-1.70;99.90;;;;;;5084677;28;20076;-74
2024/01/15 04:31:40;;;;;;;1.65;1.55;;;-1.60;99.90;;;;;;5083628;28;20032;-74
2024/01/15 04:34:06;;;;;;;5.45;2.70;;;-1.60;99.90;;;;;;5085379;28;20036;-74
2024/01/15 04:36:39;;;;;;;5.68;2.55;;;-1.60;99.90;;;;;;5084207;28;20067;-73
2024/01/15 04:39:05;;;;;;;1.38;1.38;;;-1.60;99.90;;;;;;5085625;28;20025;-74
2024/01/15 04:41:31;;;;;;;2.08;1.33;;;-1.60;99.90;;;;;;5089549;28;20043;-75
2024/01/15 04:43:57;;;;;;;3.72;2.58;;;-1.50;99.90;;;;;;5086610;28;20488;-74
2024/01/15 04:46:23;;;;;;;1.80;1.73;;;-1.50;99.90;;;;;;5082629;28;20033;-73
2024/01/15 04:48:49;;;;;;;0.95;0.70;;;-1.40;99.90;;;;;;5084453;28;20039;-74
2024/01/15 04:51:15;;;;;;;1.08;0.90;;;-1.40;99.90;;;;;;5085429;28;20094;-73
2024/01/15 04:53:42;;;;;;;3.33;1.40;;;-1.40;99.90;;;;;;5082179;28;20032;-74
2024/01/15 04:56:08;;;;;;;0.22;0.22;;;-1.20;99.90;;;;;;5081423;28;20058;-74
2024/01/15 04:58:34;;;;;;;10.80;1.90;;;-1.10;99.90;;;;;;5082061;28;20024;-74
2024/01/15 05:01:00;;;;;;;3.55;2.20;;;-1.10;99.90;;;;;;5089185;28;20024;-74
2024/01/15 05:03:26;;;;;;;2.15;2.05;;;-1.10;99.90;;;;;;5078332;28;20039;-74
2024/01/15 05:05:52;;;;;;;0.38;0.35;;;-1.10;99.90;;;;;;5080751;28;20024;-75
2024/01/15 05:08:18;;;;;;;7.38;3.25;;;-1.10;99.90;;;;;;5063668;28;20056;-74
2024/01/15 05:10:45;;;;;;;2.28;1.08;;;-1.10;99.90;;;;;;5083621;28;20028;-75
2024/01/15 05:13:11;;;;;;;2.92;2.25;;;-1.20;99.90;;;;;;5077543;28;20036;-74
2024/01/15 05:15:37;;;;;;;1.30;1.10;;;-1.30;99.90;;;;;;5079195;28;20031;-75
2024/01/15 05:18:03;;;;;;;1.77;1.67;;;-1.40;99.90;;;;;;5081643;28;20055;-74
2024/01/15 05:20:29;;;;;;;0.70;0.63;;;-1.40;99.90;;;;;;5081062;28;20841;-75
2024/01/15 05:22:56;;;;;;;13.88;10.07;;;-1.50;99.90;;;;;;5060489;28;20051;-74
2024/01/15 05:25:22;;;;;;;6.45;5.82;;;-1.50;99.90;;;;;;5080181;28;20028;-73
2024/01/15 05:27:49;;;;;;;5.45;4.93;;;-1.50;99.90;;;;;;5082845;28;20380;-75
2024/01/15 05:30:16;;;;;;;1.92;1.70;;;-1.50;99.90;;;;;;5079054;28;20039;-74
2024/01/15 05:32:42;;;;;;;1.65;1.55;;;-1.50;99.90;;;;;;5080745;28;20412;-74
2024/01/15 05:35:08;;;;;;;2.80;2.38;;;-1.60;99.90;;;;;;5078260;28;20055;-74
2024/01/15 05:37:34;;;;;;;0.28;0.20;;;-1.50;99.90;;;;;;5082011;28;20080;-74
2024/01/15 05:40:01;;;;;;;6.25;2.35;;;-1.50;99.90;;;;;;5078104;28;20035;-75
2024/01/15 05:42:29;;;;;;;2.05;1.95;;;-1.60;99.90;;;;;;5081177;28;20024;-74
2024/01/15 05:44:56;;;;;;;0.82;0.80;;;-1.50;99.90;;;;;;5074018;28;20118;-74
2024/01/15 05:47:22;;;;;;;2.50;2.30;;;-1.60;99.90;;;;;;5081224;28;20059;-74
2024/01/15 05:49:48;;;;;;;1.67;1.55;;;-1.50;99.90;;;;;;5082533;28;20020;-74
2024/01/15 05:52:15;;;;;;;2.53;2.15;;;-1.50;99.90;;;;;;5072308;28;20562;-75
2024/01/15 05:54:41;;;;;;;4.47;2.35;;;-1.50;99.90;;;;;;5080217;28;20036;-75
2024/01/15 05:57:07;;;;;;;0.68;0.68;;;-1.50;99.90;;;;;;5086329;28;20032;-74
2024/01/15 05:59:36;;;;;;;4.35;3.03;;;-1.50;99.90;;;;;;5084697;28;20028;-74
2024/01/15 06:02:02;;;;;;;2.25;2.15;;;-1.50;99.90;;;;;;5080840;28;20032;-74
2024/01/15 06:04:28;;;;;;;6.05;4.70;;;-1.50;99.90;;;;;;5077736;28;20036;-74
2024/01/15 06:06:54;;;;;;;6.55;6.07;;;-1.50;99.90;;;;;;5079304;28;20052;-73
2024/01/15 06:09:20;;;;;;;2.20;2.05;;;-1.40;99.90;;;;;;5079504;28;20131;-74
2024/01/15 06:11:47;;;;;;;4.07;1.70;;;-1.50;99.90;;;;;;5078238;28;20052;-74
2024/01/15 06:14:13;;;;;;;2.65;1.95;;;-1.40;99.90;;;;;;5079042;28;20024;-73
2024/01/15 06:16:39;;;;;;;3.08;2.40;;;-1.40;99.90;;;;;;5086306;28;20031;-75
2024/01/15 06:19:05;;;;;;;0.93;0.93;;;-1.40;99.90;;;;;;5084352;28;20024;-75
2024/01/15 06:21:31;;;;;;;4.10;2.78;;;-1.30;99.90;;;;;;5080681;28;20028;-74
2024/01/15 06:23:57;;;;;;;3.97;2.92;;;-1.30;99.90;;;;;;5078920;28;20051;-74
2024/01/15 06:26:24;;;;;;;3.75;1.55;;;-1.30;99.90;;;;;;5082022;28;20035;-73
2024/01/15 06:28:50;;;;;;;1.98;1.80;;;-1.30;99.90;;;;;;5082303;28;20056;-74
2024/01/15 06:31:17;;;;;;;3.78;1.40;;;-1.30;99.90;;;;;;5078118;28;20493;-74
2024/01/15 06:33:44;;;;;;;1.75;1.65;;;-1.30;99.90;;;;;;5082283;28;20035;-74
2024/01/15 06:36:10;;;;;;;6.00;2.28;;;-1.30;99.90;;;;;;5080125;28;20073;-74
2024/01/15 06:38:36;;;;;;;0.88;0.82;;;-1.30;99.90;;;;;;5079922;28;20045;-76
2024/01/15 06:41:03;;;;;;;0.80;0.63;;;-1.30;99.90;;;;;;5077054;28;20028;-74
2024/01/15 06:43:29;;;;;;;1.00;1.00;;;-1.30;99.90;;;;;;5069646;28;20051;-74
2024/01/15 06:45:55;;;;;;;2.00;1.25;;;-1.20;99.90;;;;;;5080047;28;20036;-75
2024/01/15 06:48:22;;;;;;;1.73;1.63;;;-1.30;99.90;;;;;;5081887;28;20512;-75
2024/01/15 06:50:48;;;;;;;10.85;3.92;;;-1.30;99.90;;;;;;5079240;28;20028;-75
2024/01/15 06:53:14;;;;;;;6.20;5.78;;;-1.20;99.90;;;;;;5076580;28;20032;-74
2024/01/15 06:55:40;;;;;;;4.82;4.43;;;-1.30;99.90;;;;;;5079041;28;20024;-75
2024/01/15 06:58:07;;;;;;;1.42;1.33;;;-1.20;99.90;;;;;;5081222;28;20028;-75
2024/01/15 07:00:33;;;;;;;2.97;2.78;;;-1.20;99.90;;;;;;5080303;28;20465;-75
2024/01/15 07:02:59;;;;;;;4.28;3.58;;;-1.20;99.90;;;;;;5079567;28;20465;-76
2024/01/15 07:05:25;;;;;;;2.17;1.48;;;-1.20;99.90;;;;;;5083037;28;20040;-76
2024/01/15 07:07:51;;;;;;;1.70;1.60;;;-1.20;99.90;;;;;;5079142;28;20044;-75
2024/01/15 07:10:17;;;;;;;0.80;0.80;;;-1.20;99.90;;;;;;5079116;28;20032;-74
2024/01/15 07:12:44;;;;;;;1.88;1.77;;;-1.20;99.90;;;;;;5076857;28;20048;-76
2024/01/15 07:15:10;;;;;;;5.25;1.48;;;-1.20;99.90;;;;;;5077801;28;20035;-75
2024/01/15 07:17:40;;;;;;;1.52;1.08;;;-1.10;99.90;;;;;;5078052;28;20039;-75
2024/01/15 07:20:07;;;;;;;5.57;2.40;;;-1.10;99.90;;;;;;5079017;28;20042;-75
2024/01/15 07:22:37;;;;;;;5.88;2.15;;;-1.10;99.90;;;;;;5076940;28;20025;-76
2024/01/15 07:25:04;;;;;;;1.08;1.05;;;-1.00;99.90;;;;;;5079330;28;20028;-76
2024/01/15 07:27:31;;;;;;;1.20;1.20;;;-1.00;99.90;;;;;;5079178;28;20040;-73
2024/01/15 07:29:58;;;;;;;2.13;1.92;;;-1.00;99.90;;;;;;5078489;28;20044;-74
2024/01/15 07:32:24;;;;;;;0.80;0.55;;;-1.00;99.90;;;;;;5081831;28;20045;-76
2024/01/15 07:34:50;;;;;;;1.00;1.00;;;-0.90;99.90;;;;;;5083665;28;20039;-76
2024/01/15 07:37:17;;;;;;;3.75;3.38;;;-0.90;99.90;;;;;;5081272;28;20048;-73
2024/01/15 07:39:43;;;;;;;5.88;2.85;;;-0.90;99.90;;;;;;5077267;28;20038;-77
2024/01/15 07:42:09;;;;;;;5.82;2.30;;;-0.90;99.90;;;;;;5077875;28;20036;-76
2024/01/15 07:44:36;;;;;;;7.53;1.67;;;-0.80;99.90;;;;;;5076106;28;20058;-76
2024/01/15 07:47:03;;;;;;;2.25;2.15;;;-0.80;99.90;;;;;;5080693;28;20024;-76
2024/01/15 07:49:29;;;;;;;2.03;1.58;;;-0.80;99.90;;;;;;5074473;28;20043;-75
2024/01/15 07:51:55;;;;;;;3.63;3.30;;;-0.80;99.90;;;;;;5084705;28;20031;-77
2024/01/15 07:54:23;;;;;;;1.33;1.27;;;-0.80;99.90;;;;;;5083077;28;20361;-75
2024/01/15 07:56:59;;;;;;;7.07;3.40;;;-0.80;99.90;;;;;;5082793;28;20031;-75
2024/01/15 07:59:26;;;;;;;1.17;1.08;;;-0.80;99.90;;;;;;5075548;28;20040;-75
2024/01/15 08:01:53;;;;;;;0.20;0.20;;;-0.70;99.90;;;;;;5060492;28;20032;-75
2024/01/15 08:04:20;;;;;;;0.77;0.77;;;-0.70;99.90;;;;;;5080942;28;20388;-76
2024/01/15 08:06:46;;;;;;;1.83;1.73;;;-0.60;99.90;;;;;;5060388;28;20048;-76
2024/01/15 08:09:12;;;;;;;5.57;2.33;;;-0.60;99.90;;;;;;5077598;28;20480;-75
2024/01/15 08:11:43;;;;;;;2.10;1.27;;;-0.60;99.90;;;;;;5074938;28;20035;-77
2024/01/15 08:14:10;;;;;;;2.93;2.33;;;-0.50;99.90;;;;;;5080813;28;20035;-76
2024/01/15 08:16:37;;;;;;;3.55;3.33;;;-0.50;99.90;;;;;;5081010;28;20281;-76
2024/01/15 08:19:03;;;;;;;6.63;6.13;;;-0.50;99.90;;;;;;5075952;28;20044;-75
2024/01/15 08:21:31;;;;;;;0.63;0.63;;;-0.50;99.90;;;;;;5076535;28;20429;-76
2024/01/15 08:23:59;;;;;;;3.78;3.03;;;-0.40;99.90;;;;;;5076216;28;20033;-75
2024/01/15 08:26:26;;;;;;;5.82;1.95;;;-0.40;99.90;;;;;;5074447;28;20036;-75
2024/01/15 08:28:52;;;;;;;0.52;0.52;;;-0.40;99.90;;;;;;5076660;28;20047;-75
2024/01/15 08:31:18;;;;;;;0.95;0.93;;;-0.40;99.90;;;;;;5080053;28;20453;-74
2024/01/15 08:33:45;;;;;;;2.42;2.17;;;-0.40;99.90;;;;;;5072429;28;20040;-74
2024/01/15 08:36:11;;;;;;;1.15;1.10;;;-0.40;99.90;;;;;;5083711;28;20059;-77
2024/01/15 08:38:37;;;;;;;1.77;1.65;;;-0.30;99.90;;;;;;5091009;28;20503;-77
2024/01/15 08:41:04;;;;;;;0.60;0.55;;;-0.30;99.90;;;;;;5089098;28;20036;-75
2024/01/15 08:43:33;;;;;;;2.55;2.35;;;-0.30;99.90;;;;;;5082829;28;20039;-75
2024/01/15 08:46:00;;;;;;;1.00;0.85;;;-0.30;99.90;;;;;;5080270;28;20036;-76
2024/01/15 08:48:29;;;;;;;1.55;1.42;;;-0.30;99.90;;;;;;5085752;28;20032;-75
2024/01/15 08:50:56;;;;;;;0.43;0.43;;;-0.20;99.90;;;;;;5078068;28;20036;-74
2024/01/15 08:53:23;;;;;;;2.08;1.88;;;-0.20;99.90;;;;;;5081782;28;20036;-74
2024/01/15 08:55:49;;;;;;;2.67;1.42;;;-0.10;99.90;;;;;;5077981;28;20032;-74
2024/01/15 08:58:16;;;;;;;3.60;3.17;;;-0.10;99.90;;;;;;5080346;28;20048;-75
2024/01/15 09:00:42;;;;;;;3.17;2.90;;;-0.10;99.90;;;;;;5079418;28;20035;-74
2024/01/15 09:03:08;;;;;;;3.80;2.53;;;-0.10;99.90;;;;;;5075773;28;20474;-74
2024/01/15 09:05:35;;;;;;;3.45;2.58;;;0.00;99.90;;;;;;5062676;28;20032;-73
2024/01/15 09:08:01;;;;;;;1.08;1.08;;;0.00;99.90;;;;;;5082418;28;20048;-75
2024/01/15 09:10:27;;;;;;;3.30;1.77;;;0.00;99.90;;;;;;5081740;28;20040;-74
2024/01/15 09:12:53;;;;;;;1.38;1.27;;;0.00;99.90;;;;;;5079028;28;20063;-75
2024/01/15 09:15:20;;;;;;;1.02;1.02;;;0.10;99.90;;;;;;5082300;28;20118;-75
2024/01/15 09:17:46;;;;;;;2.00;1.75;;;0.10;99.90;;;;;;5081226;28;20495;-75
2024/01/15 09:20:12;;;;;;;1.30;0.88;;;0.10;99.90;;;;;;5080011;28;20039;-75
2024/01/15 09:22:42;;;;;;;4.45;1.65;;;0.10;99.90;;;;;;5079953;28;20036;-74
2024/01/15 09:25:11;;;;;;;0.93;0.90;;;0.10;99.90;;;;;;5079323;28;20396;-75
2024/01/15 09:27:37;;;;;;;2.47;2.28;;;0.20;99.90;;;;;;5082560;28;20040;-75
2024/01/15 09:30:05;;;;;;;1.92;1.77;;;0.20;99.90;;;;;;5067822;28;20032;-75
2024/01/15 09:32:32;;;;;;;1.73;0.85;;;0.20;99.90;;;;;;5069677;28;20048;-75
2024/01/15 09:34:59;;;;;;;0.95;0.93;;;0.20;99.90;;;;;;5078024;28;20047;-74
2024/01/15 09:37:25;;;;;;;1.13;1.05;;;0.20;99.90;;;;;;5061712;28;20063;-75
2024/01/15 09:39:51;;;;;;;1.15;0.90;;;0.20;99.90;;;;;;5079861;28;20361;-75
2024/01/15 09:42:18;;;;;;;2.25;0.85;;;0.20;99.90;;;;;;5077993;28;20033;-75
2024/01/15 09:44:45;;;;;;;2.60;2.00;;;0.30;99.90;;;;;;5076533;28;20036;-73
2024/01/15 09:47:12;;;;;;;1.48;1.08;;;0.40;99.90;;;;;;5079824;28;20032;-73
2024/01/15 09:49:40;;;;;;;2.47;2.28;;;0.40;99.90;;;;;;5081924;28;20039;-73
2024/01/15 09:52:07;;;;;;;4.40;3.00;;;0.40;99.90;;;;;;5062693;28;20493;-73
2024/01/15 09:54:34;;;;;;;1.42;1.40;;;0.40;99.90;;;;;;5081240;28;20037;-73
2024/01/15 09:57:01;;;;;;;2.55;2.28;;;0.40;99.90;;;;;;5082983;28;20457;-73
2024/01/15 09:59:28;;;;;;;3.78;2.70;;;0.40;99.90;;;;;;5081294;28;20048;-72
2024/01/15 10:01:56;;;;;;;0.85;0.85;;;0.40;99.90;;;;;;5080611;28;20039;-73
2024/01/15 10:04:23;;;;;;;1.98;1.88;;;0.40;99.90;;;;;;5077474;28;20039;-73
2024/01/15 10:06:51;;;;;;;2.75;2.25;;;0.40;99.90;;;;;;5071848;28;20036;-74
2024/01/15 10:09:18;;;;;;;4.80;1.98;;;0.30;99.90;;;;;;5079372;28;20043;-73
2024/01/15 10:11:45;;;;;;;3.90;3.22;;;0.40;99.90;;;;;;5067714;28;20036;-74
2024/01/15 10:14:14;;;;;;;1.85;1.50;;;0.40;99.90;;;;;;5080104;28;20035;-74
2024/01/15 10:16:41;;;;;;;1.90;1.67;;;0.30;99.90;;;;;;5078057;28;20035;-74
2024/01/15 10:19:08;;;;;;;5.30;1.83;;;0.30;99.90;;;;;;5081333;28;20029;-74
2024/01/15 10:21:35;;;;;;;2.53;2.00;;;0.30;99.90;;;;;;5062212;28;20029;-74
2024/01/15 10:24:02;;;;;;;3.90;3.63;;;0.40;1.00;;;;;;5080124;28;20480;-74
2024/01/15 10:26:30;;;;;;;0.40;0.40;;;0.50;1.00;;;;;;5078128;28;20037;-74
2024/01/15 10:28:56;;;;;;;1.05;1.05;;;0.50;1.00;;;;;;5070252;28;20043;-74
2024/01/15 10:31:22;;;;;;;3.53;1.83;;;0.60;1.00;;;;;;5077433;28;20032;-75
2024/01/15 10:33:49;;;;;;;1.48;1.38;;;0.60;1.00;;;;;;5080955;28;20032;-74
2024/01/15 10:36:17;;;;;;;2.25;2.05;;;0.60;1.00;;;;;;5068382;28;20417;-74
2024/01/15 10:38:46;;;;;;;2.78;2.58;;;0.60;1.00;;;;;;5077545;28;20037;-74
2024/01/15 10:41:12;;;;;;;0.35;0.35;;;0.60;1.00;;;;;;5073390;28;20333;-74
2024/01/15 10:43:41;;;;;;;1.50;1.40;;;0.60;1.00;;;;;;5080388;28;20047;-74
2024/01/15 10:46:08;;;;;;;1.00;1.00;;;0.70;1.00;;;;;;5080661;28;20037;-74
2024/01/15 10:48:35;;;;;;;1.92;1.60;;;0.70;1.00;;;;;;5080132;28;20051;-74
2024/01/15 10:51:10;;;;;;;1.65;1.45;;;0.70;1.00;;;;;;5066503;28;20222;-75
2024/01/15 10:53:40;;;;;;;1.17;1.08;;;0.70;1.00;;;;;;5081529;28;20044;-74
2024/01/15 10:56:07;;;;;;;0.47;0.47;;;0.70;1.00;;;;;;5080860;28;20469;-74
2024/01/15 10:58:35;;;;;;;1.05;0.90;;;0.80;1.00;;;;;;5074613;28;20423;-74
2024/01/15 11:01:02;;;;;;;3.50;0.82;;;0.70;1.00;;;;;;5079371;28;20036;-76
2024/01/15 11:03:29;;;;;;;1.23;1.05;;;0.80;99.90;;;;;;5040683;28;20051;-76
2024/01/15 11:05:55;;;;;;;1.85;1.75;;;0.90;99.90;;;;;;5071040;28;20039;-74
2024/01/15 11:08:24;;;;;;;1.08;0.95;;;0.90;99.90;;;;;;5069783;28;20037;-74
2024/01/15 11:10:54;;;;;;;10.98;1.75;;;0.90;99.90;;;;;;5077230;28;20368;-72
2024/01/15 11:13:33;;;;;;;1.60;1.50;;;0.90;99.90;;;;;;5079717;28;20037;-74
2024/01/15 11:16:06;;;;;;;1.45;1.30;;;0.90;99.90;;;;;;5068840;28;20366;-73
2024/01/15 11:18:37;;;;;;;1.40;1.30;;;0.90;99.90;;;;;;5079147;28;20036;-73
2024/01/15 11:21:15;;;;;;;2.15;2.05;;;0.90;99.90;;;;;;5080421;28;20031;-73
2024/01/15 11:23:52;;;;;;;0.30;0.30;;;0.80;99.90;;;;;;5076212;28;20114;-73
2024/01/15 11:26:44;;;;;;;0.50;0.50;;;0.80;99.90;;;;;;5060356;28;20041;-73
2024/01/15 11:29:30;;;;;;;;;;;0.80;99.90;;;;;;5076528;28;20396;-73
2024/01/15 11:31:59;;;;;;;1.95;1.10;;;0.80;1.00;;;;;;5073313;28;19913;-74
2024/01/15 11:34:57;;;;;;;1.95;1.85;;;0.80;1.00;;;;;;5060440;28;20503;-73
2024/01/15 11:37:26;;;;;;;0.98;0.90;;;0.90;1.00;;;;;;5077655;28;20047;-72
2024/01/15 11:39:54;;;;;;;1.08;1.08;;;0.90;1.00;;;;;;5065714;28;20055;-72
2024/01/15 11:42:21;;;;;;;0.22;0.22;;;1.00;99.90;;;;;;5076232;28;20036;-73
2024/01/15 11:44:48;;;;;;;0.88;0.88;;;1.00;99.90;;;;;;5077006;28;20036;-71
2024/01/15 11:47:15;;;;;;;1.00;0.95;;;1.10;99.90;;;;;;5077617;28;20036;-71
2024/01/15 11:50:01;;;;;;;3.65;1.92;;;1.20;99.90;;;;;;5059631;28;20040;-71
2024/01/15 11:52:38;;;;;;;3.67;1.02;;;1.10;99.90;;;;;;5075754;28;20028;-73
2024/01/15 11:55:22;;;;;;;2.15;1.83;;;1.20;99.90;;;;;;5075937;28;20381;-71
2024/01/15 11:57:54;;;;;;;1.05;0.80;;;1.20;99.90;;;;;;5063483;28;20032;-73
2024/01/15 12:00:22;;;;;;;2.22;1.40;;;1.30;99.90;;;;;;5067405;28;20040;-76
2024/01/15 12:02:50;;;;;;;1.00;0.63;;;1.30;99.90;;;;;;5078320;28;20385;-75
2024/01/15 12:05:18;;;;;;;2.55;1.95;;;1.40;99.90;;;;;;5079610;28;20035;-76
2024/01/15 12:07:47;;;;;;;1.67;1.52;;;1.40;99.90;;;;;;5082249;28;20385;-76
2024/01/15 12:10:15;;;;;;;4.22;2.17;;;1.40;99.90;;;;;;5084235;28;20039;-76
2024/01/15 12:12:58;;;;;;;1.00;1.00;;;1.50;99.90;;;;;;5076029;28;20396;-75
2024/01/15 12:15:28;;;;;;;0.30;0.30;;;1.50;99.90;;;;;;5053122;28;20040;-75
2024/01/15 12:17:59;;;;;;;3.20;1.58;;;1.60;99.90;;;;;;5060050;28;20047;-76
2024/01/15 12:20:26;;;;;;;2.08;0.85;;;1.60;99.90;;;;;;5081918;28;20398;-77
2024/01/15 12:22:52;;;;;;;2.25;2.05;;;1.60;99.90;;;;;;5084677;28;20039;-76
2024/01/15 12:25:19;;;;;;;1.30;1.20;;;1.60;99.90;;;;;;5079229;28;20389;-76
2024/01/15 12:27:46;;;;;;;1.13;1.02;;;1.70;99.50;;;;;;5079612;28;20033;-75
2024/01/15 12:30:13;;;;;;;1.48;1.38;;;1.70;96.20;;;;;;5084379;28;20036;-76
2024/01/15 12:32:42;;;;;;;1.13;1.13;;;1.60;92.80;;;;;;5086379;28;20033;-80
2024/01/15 12:35:13;;;;;;;2.42;2.22;;;1.70;99.90;;;;;;5083635;28;20032;-79
2024/01/15 12:37:40;;;;;;;2.88;2.47;;;1.70;85.50;;;;;;5067154;28;20405;-85
2024/01/15 12:40:09;;;;;;;0.30;0.30;;;1.80;81.50;;;;;;5083526;28;20043;-83
2024/01/15 12:42:36;;;;;;;0.30;0.30;;;1.80;56.20;;;;;;5085367;28;20035;-82
2024/01/15 12:45:05;;;;;;;0.55;0.55;;;1.80;54.20;;;;;;5067317;28;20032;-82
2024/01/15 12:47:31;;;;;;;1.30;1.20;;;1.80;93.80;;;;;;5082445;28;20032;-79
2024/01/15 12:49:59;;;;;;;0.73;0.73;;;1.80;64.60;;;;;;5080677;28;20039;-81